Tiempo atmosférico en la estación meteorológica de Puerto Alto del León, Madrid (1532 m.)



Fecha
DESCASC
Temp. máxima en grados centígrados (hora)
DESCASC
Temp. mínima en grados centígrados (hora)
DESCASC
Temp. media en grados centígrados
DESCASC
Racha de viento máxima en m/sg (hora)
DESCASC
Velocidad máxima media en intervalos de 10 minutos(hora)
DESCASC
Precipitaciones diarias en mm
DESCASC
Precipitaciones de 00:00 a 06:00 en mm
DESCASC
Precipitaciones de 06:00 a 12:00 en mm
DESCASC
Precipitaciones de 12:00 a 18:00 en mm
DESCASC
Precipitaciones de 18:00 a 24:00 en mm
DESCASC
23-06-2019 25 (16:20) 13.5 (05:50) 19.3 13.89 (13:40) 6.39 (13:50) 0 0 0 0 0
22-06-2019 23.2 (18:40) 10 (01:30) 16.6 10.28 (15:30) 5.83 (04:40) 0 0 0 0 0
21-06-2019 19.9 (18:20) 8.2 (07:30) 14 12.22 (02:50) 8.61 (02:10) 0 0 0 0 0
20-06-2019 21 (16:10) 8.8 (00:00) 14.9 11.67 (21:20) 8.06 (21:20) 0 0 0 0 0
19-06-2019 -- (--) -- (--) -- -- (--) -- (--) -- 0 -- -- 0
18-06-2019 22.7 (16:00) 12.8 (00:00) 17.8 12.78 (14:00) 5.83 (13:40) 0 0 0 0 0
17-06-2019 23.5 (18:40) 12.2 (00:00) 17.8 13.89 (14:00) 5.83 (15:10) 0 0 0 0 0
16-06-2019 21.7 (15:50) 8.9 (00:00) 15.3 11.11 (14:40) 5.83 (11:30) 0 0 0 0 0
15-06-2019 19.2 (17:40) 3.5 (00:00) 11.4 13.33 (01:20) 8.89 (00:20) 0 0 0 0 0
14-06-2019 18.6 (17:20) 7.9 (00:00) 13.3 13.33 (22:40) 9.44 (23:50) 0 0 0 0 0
13-06-2019 20 (18:50) 6.1 (00:00) 13 15 (13:40) 7.22 (22:00) 0 0 0 0 0
12-06-2019 17.6 (19:40) 0.6 (00:00) 9.1 9.44 (16:20) 5 (04:50) 0 0 0 0 0
11-06-2019 13.5 (18:10) 3.4 (00:00) 8.5 15.56 (11:50) 10.83 (09:00) 0 0 0 0 0
10-06-2019 17.1 (17:30) 4.1 (00:00) 10.6 13.33 (01:20) 10 (01:20) 0 0 0 0 0
09-06-2019 19.6 (17:50) 7.9 (00:00) 13.8 13.89 (22:30) 9.72 (23:50) 0 0 0 0 0
08-06-2019 19.6 (16:50) 5 (00:00) 12.3 13.33 (12:40) 7.22 (12:00) 0 0 0 0 0
07-06-2019 12.8 (17:40) 0.6 (00:00) 6.7 18.61 (08:20) 13.33 (08:10) 2.1 2.1 0 0 0
06-06-2019 15.2 (16:40) 1 (00:00) 8.1 18.61 (15:50) 7.78 (14:10) 0 0 0 0 0
05-06-2019 12.4 (17:40) 2 (00:00) 7.2 21.39 (10:10) 14.17 (10:10) 1.2 0.2 1 0 0
04-06-2019 21.7 (16:30) 9.5 (00:00) 15.6 13.33 (19:10) 8.06 (21:10) 0 0 0 0 0
03-06-2019 25.3 (16:00) 13.2 (00:00) 19.2 12.5 (17:10) 8.33 (18:10) 0 0 0 0 0
02-06-2019 25.1 (18:10) 13.9 (00:00) 19.5 9.72 (20:10) 6.39 (03:10) 0 0 0 0 0
01-06-2019 25.5 (19:00) 12.7 (00:00) 19.1 7.5 (23:20) 4.72 (06:00) 0 0 0 0 0
31-05-2019 24.3 (18:10) 12 (00:00) 18.1 9.17 (03:00) 5.83 (03:00) 0 0 0 0 0
30-05-2019 24 (18:40) 7 (00:00) 15.5 11.94 (17:30) 4.17 (23:50) 0 0 0 0 0
29-05-2019 18.3 (16:30) 1.4 (00:00) 9.8 14.17 (02:10) 7.22 (06:00) 0 0 0 0 0
28-05-2019 16.8 (16:20) 3.5 (00:00) 10.1 14.72 (17:10) 8.89 (10:20) 0 0 0 0 0
27-05-2019 19.4 (18:00) 7.3 (00:00) 13.3 12.22 (15:10) 8.33 (11:40) 0 0 0 0 0
26-05-2019 17.9 (17:20) 2 (00:00) 9.9 15.28 (13:50) 9.17 (10:50) 0 0 0 0 0

Gráficas

Temp. máximas Temp. mínimas Temp. medias Precipitaciones Rachas de viento máximas Velocidades máximas media en intervalos de 10 minutos

Datos horarios

Fecha y hora oficial Temperatura (ºC) Velocidad del viento (km/h) Dirección del viento Racha (km/h) Dirección de racha Precipitación (mm) Presión (hPa) Tendencia (hPa) Humedad (%)
2019-06-24 23:00:00 10.8 -- -- 33 Norte 0 849.7 1.1 73
2019-06-24 22:00:00 12.1 -- -- 44 Norte 0 849.4 1 66
2019-06-24 21:00:00 15.3 -- -- 48 Norte 0 849 0.7 52
2019-06-24 20:00:00 19.7 -- -- 37 Norte 0 848.6 0.2 39
2019-06-24 19:00:00 22.6 -- -- 22 Norte 0 848.4 0.3 28
2019-06-24 18:00:00 23 -- -- 33 Norte 0 848.3 0.3 26
2019-06-24 17:00:00 22.3 -- -- 33 Norte 0 848.4 0.1 26
2019-06-24 16:00:00 21.4 -- -- 40 Norte 0 848.1 -0.1 25
2019-06-24 15:00:00 22.5 -- -- 44 Norte 0 848 -0.5 26
2019-06-24 14:00:00 21.9 -- -- 33 Norte 0 848.3 -0.3 27
2019-06-24 13:00:00 18.8 -- -- 31 Norte 0 848.2 -0.2 32
2019-06-24 12:00:00 18.4 -- -- 26 Norte 0 848.5 0.6 35
2019-06-24 11:00:00 15.9 -- -- 24 Norte 0 848.6 0.9 38
2019-06-24 10:00:00 14.7 -- -- 24 Norte 0 848.4 0.5 38
2019-06-24 09:00:00 14.3 -- -- 24 Norte 0 847.9 0.2 39
2019-06-24 08:00:00 13.7 -- -- 26 Norte 0 847.7 -0.1 40
2019-06-24 07:00:00 13.8 -- -- 29 Norte 0 847.9 -0.1 40
2019-06-24 06:00:00 14.2 -- -- 33 Norte 0 847.7 -0.5 38
2019-06-24 05:00:00 14.7 -- -- 31 Norte 0 847.8 -0.6 36
2019-06-24 04:00:00 15.8 -- -- 27 Norte 0 848 -0.4 30
2019-06-24 03:00:00 17.7 -- -- 17 Norte 0 848.2 -0.5 26
2019-06-24 02:00:00 19 -- -- 14 Norte 0 848.4 0 25
2019-06-24 01:00:00 16.5 -- -- 25 Norte 0 848.4 0.7 27
2019-06-24 00:00:00 17.8 -- -- 21 Norte 0 848.7 1 26
2019-06-23 23:00:00 19.5 -- -- 6 Norte 0 848.4 0.5 22
2019-06-23 22:00:00 20.1 -- -- 9 Norte 0 847.7 -0.3 22
2019-06-23 21:00:00 21.1 -- -- 15 Norte 0 847.7 -0.5 22
2019-06-23 20:00:00 22.1 -- -- 23 Norte 0 847.9 -0.5 20
2019-06-23 19:00:00 22.9 -- -- 33 Norte 0 848 -0.4 19
2019-06-23 18:00:00 22.7 -- -- 39 Norte 0 848.2 -0.4 18
2019-06-23 17:00:00 23 -- -- 42 Norte 0 848.4 -0.1 18
2019-06-23 16:00:00 23.7 -- -- 35 Norte 0 848.4 -0.4 20
2019-06-23 15:00:00 22.6 -- -- 44 Norte 0 848.6 0 21
2019-06-23 14:00:00 22.2 -- -- 50 Norte 0 848.5 -0.1 25
2019-06-23 13:00:00 20.8 -- -- 36 Norte 0 848.8 0.4 28
2019-06-23 12:00:00 19.8 -- -- 36 Norte 0 848.6 0.5 32
2019-06-23 11:00:00 17.7 -- -- 24 Norte 0 848.6 0.7 36
2019-06-23 10:00:00 16.5 -- -- 19 Norte 0 848.4 0.6 38
2019-06-23 09:00:00 17.2 -- -- 14 Norte 0 848.1 0.4 35
2019-06-23 08:00:00 15.4 -- -- 10 Norte 0 847.9 0.4 36
2019-06-23 07:00:00 14.3 -- -- 12 Norte 0 847.8 0.3 35
2019-06-23 06:00:00 13.9 -- -- 20 Norte 0 847.7 -0.2 33
2019-06-23 05:00:00 14.8 -- -- 23 Norte 0 847.5 -0.8 29
2019-06-23 04:00:00 16.2 -- -- 17 Norte 0 847.5 -1.1 25
2019-06-23 03:00:00 17.4 -- -- 16 Norte 0 847.9 -0.7 22
2019-06-23 02:00:00 18.2 -- -- 20 Norte 0 848.3 -0.4 22
2019-06-23 01:00:00 17.7 -- -- 15 Norte 0 848.6 0.2 25
2019-06-23 00:00:00 18 -- -- 19 Norte 0 848.6 0.4 26
2019-06-22 23:00:00 18.2 -- -- 20 Norte 0 848.7 0.5 24
2019-06-22 22:00:00 18.7 -- -- 19 Norte 0 848.4 0.4 22
2019-06-22 21:00:00 20.2 -- -- 19 Norte 0 848.2 -0.1 19
2019-06-22 20:00:00 21.7 -- -- 24 Norte 0 848.2 -0.4 18
2019-06-22 19:00:00 21.9 -- -- 25 Norte 0 848 -0.7 17
2019-06-22 18:00:00 21.4 -- -- 33 Norte 0 848.3 -0.8 18
2019-06-22 17:00:00 21.3 -- -- 34 Norte 0 848.6 -0.6 18
2019-06-22 16:00:00 21.6 -- -- 37 Norte 0 848.7 -1.1 21
2019-06-22 15:00:00 20.9 -- -- 37 Norte 0 849.1 -0.7 23
2019-06-22 14:00:00 21 -- -- 37 Norte 0 849.2 -0.5 27
2019-06-22 13:00:00 19.2 -- -- 33 Norte 0 849.8 -0.2 33
2019-06-22 12:00:00 17.8 -- -- 26 Norte 0 849.8 -0.2 44
2019-06-22 11:00:00 15.1 -- -- 28 Norte 0 849.7 0.1 53
2019-06-22 10:00:00 13.7 -- -- 30 Norte 0 850 0.6 60
2019-06-22 09:00:00 12.9 -- -- 27 Norte 0 850 0.6 65
2019-06-22 08:00:00 11.9 -- -- 27 Norte 0 849.6 0.3 60
2019-06-22 07:00:00 11.4 -- -- 29 Norte 0 849.4 -0.2 53
2019-06-22 06:00:00 11.2 -- -- 28 Norte 0 849.4 -0.8 53
2019-06-22 05:00:00 10.3 -- -- 32 Norte 0 849.3 -1.3 51
2019-06-22 04:00:00 11.5 -- -- 17 Norte 0 849.6 -0.8 45
2019-06-22 03:00:00 11.5 -- -- 5 Norte 0 850.2 -0.1 46
2019-06-22 02:00:00 11.7 -- -- 14 Norte 0 850.6 0.4 47
2019-06-22 01:00:00 10.6 -- -- 24 Norte 0 850.4 0.6 49
2019-06-22 00:00:00 11.9 -- -- 27 Norte 0 850.3 0.8 43
2019-06-21 23:00:00 12.5 -- -- 24 Norte 0 850.2 1.1 39
2019-06-21 22:00:00 14 -- -- 28 Norte 0 849.8 1.1 29
2019-06-21 21:00:00 17 -- -- 30 Norte 0 849.5 0.8 22
2019-06-21 20:00:00 18.3 -- -- 36 Norte 0 849.1 0 20
2019-06-21 19:00:00 18.5 -- -- 36 Norte 0 848.7 -0.5 20
2019-06-21 18:00:00 18.6 -- -- 34 Norte 0 848.7 -0.6 23
2019-06-21 17:00:00 17.2 -- -- 34 Norte 0 849.1 -0.5 32
2019-06-21 16:00:00 15.2 -- -- 37 Norte 0 849.2 -0.2 44
2019-06-21 15:00:00 12.5 -- -- 34 Norte 0 849.3 0 60
2019-06-21 14:00:00 11.5 -- -- 30 Norte 0 849.6 0.4 68
2019-06-21 13:00:00 10 -- -- 30 Norte 0 849.4 0.5 80
2019-06-21 12:00:00 9.2 -- -- 31 Norte 0 849.3 0.9 80
2019-06-21 11:00:00 12 -- -- 26 Norte 0 849.2 1.1 63
2019-06-21 10:00:00 10.2 -- -- 23 Norte 0 848.9 1.2 70
2019-06-21 09:00:00 9.5 -- -- 20 Norte 0 848.4 0.9 83
2019-06-21 08:00:00 8.5 -- -- 17 Norte 0 848.1 0.6 83
2019-06-21 07:00:00 8.5 -- -- 23 Norte 0 847.7 0.4 83
2019-06-21 06:00:00 8.6 -- -- 22 Norte 0 847.5 0 83
2019-06-21 05:00:00 9 -- -- 27 Norte 0 847.5 0.1 83
2019-06-21 04:00:00 9.2 -- -- 35 Norte 0 847.3 -0.3 83
2019-06-21 03:00:00 9.5 -- -- 44 Norte 0 847.5 0.2 83
2019-06-21 02:00:00 9.5 -- -- 42 Norte 0 847.4 0 83
2019-06-21 01:00:00 9.9 -- -- 35 Norte 0 847.6 0.8 76
2019-06-21 00:00:00 11.2 -- -- 33 Norte 0 847.3 0.8 67
2019-06-20 23:00:00 11.7 -- -- 38 Norte 0 847.4 1 63
2019-06-20 22:00:00 13 -- -- 42 Norte 0 846.8 0.5 55
2019-06-20 21:00:00 15.5 -- -- 25 Norte 0 846.5 0.1 37
2019-06-20 20:00:00 16.3 -- -- 38 Norte 0 846.4 -0.2 36
2019-06-20 19:00:00 17.3 -- -- 32 Norte 0 846.3 -0.4 36
2019-06-20 18:00:00 17.8 -- -- 30 Norte 0 846.4 -1 35
2019-06-20 17:00:00 17.3 -- -- 28 Norte 0 846.6 -1 32
2019-06-20 16:00:00 20.1 -- -- 28 Norte 0 846.7 -1.1 30
2019-06-20 15:00:00 17.3 -- -- 25 Norte 0 847.4 -0.5 36
2019-06-20 14:00:00 17 -- -- 24 Norte 0 847.6 0 39
2019-06-20 13:00:00 16.3 -- -- 28 Norte 0 847.8 -0.2 41
2019-06-20 12:00:00 15.6 -- -- 24 Norte 0 847.9 0.2 46
2019-06-20 11:00:00 15.3 -- -- 22 Norte 0 847.6 -0.2 49
2019-06-20 10:00:00 14 -- -- 9 Norte 0 848 0.3 56
2019-06-20 09:00:00 11.2 -- -- 8 Norte 0 847.7 -0.1 66
2019-06-20 08:00:00 10 -- -- 15 Norte 0 847.8 0 71
2019-06-20 07:00:00 8.9 -- -- 19 Norte 0 847.7 -0.2 74
2019-06-20 06:00:00 9.5 -- -- 20 Norte 0 847.8 -0.5 71
2019-06-20 05:00:00 10 -- -- 24 Norte 0 847.8 -0.6 68
2019-06-20 04:00:00 10.5 -- -- 26 Norte 0 847.9 -0.7 66
2019-06-20 03:00:00 10.9 -- -- 29 Norte 0 848.3 -0.5 63
2019-06-20 02:00:00 11 -- -- 30 Norte 0 848.4 -0.4 60
2019-06-20 01:00:00 11.5 -- -- 28 Norte 0 848.6 0.1 57
2019-06-20 00:00:00 12.1 -- -- 25 Norte 0 848.8 0.4 53
2019-06-19 23:00:00 12.8 -- -- 32 Norte 0 848.8 0.7 47
2019-06-19 22:00:00 13.9 -- -- 35 Norte 0 848.5 0.4 43
2019-06-19 21:00:00 15.7 -- -- 32 Norte 0 848.4 0.4 39
2019-06-19 20:00:00 16.7 -- -- 26 Norte 0 848.1 0.1 37
2019-06-19 19:00:00 17.2 -- -- 13 Norte 0 848.1 -0.1 37
2019-06-19 18:00:00 17.5 -- -- 20 Norte 0 848 -0.5 37
2019-06-19 17:00:00 17.4 -- -- 23 Norte 0 848 -- 38
2019-06-19 16:00:00 17.4 -- -- 24 Norte 0 848.2 -- 39
2019-06-19 15:00:00 17.2 -- -- 28 Norte 0 848.5 -- 39
2019-06-19 14:00:00 -- -- -- -- -- -- -- -- --
2019-06-19 13:00:00 -- -- -- -- -- -- -- -- --
2019-06-19 12:00:00 -- -- -- -- -- -- -- -- --
2019-06-19 11:00:00 13.7 -- -- 15 Norte 0 848.4 0.7 49
2019-06-19 10:00:00 13.7 -- -- 18 Norte 0 848.2 1 51
2019-06-19 09:00:00 11.6 -- -- 16 Norte 0 847.8 0.3 63
2019-06-19 08:00:00 9 -- -- 27 Norte 0 847.7 0.2 78
2019-06-19 07:00:00 8 -- -- 25 Norte 0 847.2 -0.4 81
2019-06-19 06:00:00 9.1 -- -- 19 Norte 0 847.5 -0.3 75
2019-06-19 05:00:00 9.9 -- -- 17 Norte 0 847.5 -0.5 69
2019-06-19 04:00:00 11.8 -- -- 13 Norte 0 847.6 -0.7 61
2019-06-19 03:00:00 12.3 -- -- 21 Norte 0 847.8 -0.5 54
2019-06-19 02:00:00 13.3 -- -- 29 Norte 0 848 -0.5 50
2019-06-19 01:00:00 13.4 -- -- 34 Norte 0 848.3 0.2 47
2019-06-19 00:00:00 14.2 -- -- 41 Norte 0 848.3 0.2 42
2019-06-18 23:00:00 14.4 -- -- 34 Norte 0 848.5 0.6 40
2019-06-18 22:00:00 15.1 -- -- 33 Norte 0 848.1 0.6 38
2019-06-18 21:00:00 17.3 -- -- 33 Norte 0 848.1 0.7 28
2019-06-18 20:00:00 19.4 -- -- 39 Norte 0 847.9 0.3 22
2019-06-18 19:00:00 20.6 -- -- 34 Norte 0 847.5 -0.4 17
2019-06-18 18:00:00 20.7 -- -- 33 Norte 0 847.4 -0.5 14
2019-06-18 17:00:00 21 -- -- 36 Norte 0 847.6 0 12
2019-06-18 16:00:00 21.2 -- -- 35 Norte 0 847.9 -0.1 12
2019-06-18 15:00:00 20.6 -- -- 32 Norte 0 847.9 0.1 14
2019-06-18 14:00:00 21.1 -- -- 46 Norte 0 847.6 -0.3 17
2019-06-18 13:00:00 20.6 -- -- 33 Norte 0 848 0.2 19
2019-06-18 12:00:00 17.6 -- -- 36 Norte 0 847.8 -0.2 19
2019-06-18 11:00:00 17.9 -- -- 33 Norte 0 847.9 0.2 18
2019-06-18 10:00:00 15.8 -- -- 27 Norte 0 847.8 0.3 24
2019-06-18 09:00:00 15 -- -- 23 Norte 0 848 0.4 25
2019-06-18 08:00:00 14 -- -- 21 Norte 0 847.7 0.3 25
2019-06-18 07:00:00 13.7 -- -- 17 Norte 0 847.5 -0.3 24
2019-06-18 06:00:00 12.8 -- -- 15 Norte 0 847.6 -0.5 25
2019-06-18 05:00:00 14.2 -- -- 18 Norte 0 847.4 -1.4 22
2019-06-18 04:00:00 15.4 -- -- 16 Norte 0 847.8 -1.4 22
2019-06-18 03:00:00 16.2 -- -- 15 Norte 0 848.1 -1.2 20
2019-06-18 02:00:00 15.9 -- -- 24 Norte 0 848.8 -0.4 22
2019-06-18 01:00:00 16.3 -- -- 25 Norte 0 849.2 0.3 21
2019-06-18 00:00:00 16.6 -- -- 23 Norte 0 849.3 0.3 21
2019-06-17 23:00:00 17.5 -- -- 18 Norte 0 849.2 0.4 19
2019-06-17 22:00:00 18.6 -- -- 17 Norte 0 848.9 0.2 18
2019-06-17 21:00:00 19.7 -- -- 19 Norte 0 849 0 18
2019-06-17 20:00:00 20.3 -- -- 15 Norte 0 848.8 -0.1 18
2019-06-17 19:00:00 21.2 -- -- 33 Norte 0 848.7 -0.8 17
2019-06-17 18:00:00 21 -- -- 37 Norte 0 849 -0.7 15
2019-06-17 17:00:00 22.2 -- -- 37 Norte 0 848.9 -1.3 14
2019-06-17 16:00:00 21.2 -- -- 45 Norte 0 849.5 -1.1 16
2019-06-17 15:00:00 22.2 -- -- 40 Norte 0 849.7 -1 17
2019-06-17 14:00:00 20.9 -- -- 50 Norte 0 850.2 -0.7 19
2019-06-17 13:00:00 20.2 -- -- 33 Norte 0 850.6 -0.3 21
2019-06-17 12:00:00 20 -- -- 31 Norte 0 850.7 -0.1 21
2019-06-17 11:00:00 18.1 -- -- 19 Norte 0 850.9 0.3 21
2019-06-17 10:00:00 17.1 -- -- 16 Norte 0 850.9 0.7 21
2019-06-17 09:00:00 16.7 -- -- 12 Norte 0 850.8 0.6 22
2019-06-17 08:00:00 14.5 -- -- 9 Norte 0 850.6 0.4 23
2019-06-17 07:00:00 12.6 -- -- 17 Norte 0 850.2 -0.3 22
2019-06-17 06:00:00 13 -- -- 24 Norte 0 850.2 -0.6 22
2019-06-17 05:00:00 13.9 -- -- 20 Norte 0 850.2 -0.9 22
2019-06-17 04:00:00 13.8 -- -- 15 Norte 0 850.5 -0.8 24
2019-06-17 03:00:00 13.2 -- -- 17 Norte 0 850.8 -0.6 26
2019-06-17 02:00:00 13 -- -- 15 Norte 0 851.1 -0.3 26
2019-06-17 01:00:00 13.7 -- -- 16 Norte 0 851.3 0.6 23
2019-06-17 00:00:00 13.4 -- -- 19 Norte 0 851.4 1 22
2019-06-16 23:00:00 15.3 -- -- 27 Norte 0 851.4 0.9 19
2019-06-16 22:00:00 17.1 -- -- 24 Norte 0 850.7 0.3 16
2019-06-16 21:00:00 18.5 -- -- 21 Norte 0 850.4 -0.1 15
2019-06-16 20:00:00 20.7 -- -- 18 Norte 0 850.5 -0.1 14
2019-06-16 19:00:00 20.3 -- -- 24 Norte 0 850.4 -0.4 14
2019-06-16 18:00:00 19.8 -- -- 32 Norte 0 850.5 -0.5 16
2019-06-16 17:00:00 19.4 -- -- 37 Norte 0 850.6 -0.8 16
2019-06-16 16:00:00 20.9 -- -- 32 Norte 0 850.8 -0.9 17
2019-06-16 15:00:00 20.4 -- -- 40 Norte 0 851 -0.5 19
2019-06-16 14:00:00 19.8 -- -- 32 Norte 0 851.4 0 20
2019-06-16 13:00:00 17.6 -- -- 36 Norte 0 851.7 0.3 21
2019-06-16 12:00:00 18.1 -- -- 35 Norte 0 851.5 0.4 24
2019-06-16 11:00:00 16.4 -- -- 34 Norte 0 851.4 0.7 26
2019-06-16 10:00:00 15 -- -- 31 Norte 0 851.4 0.9 28
2019-06-16 09:00:00 13.1 -- -- 25 Norte 0 851.1 1 32
2019-06-16 08:00:00 11.2 -- -- 25 Norte 0 850.7 0.2 36
2019-06-16 07:00:00 9.2 -- -- 21 Norte 0 850.5 -0.2 37
2019-06-16 06:00:00 9.3 -- -- 20 Norte 0 850.1 -0.9 34
2019-06-16 05:00:00 10 -- -- 20 Norte 0 850.5 -1.3 31
2019-06-16 04:00:00 11.3 -- -- 11 Norte 0 850.7 -1.5 28
2019-06-16 03:00:00 10.6 -- -- 4 Norte 0 851 -1 26
2019-06-16 02:00:00 10.7 -- -- 8 Norte 0 851.8 -0.1 26
2019-06-16 01:00:00 11.1 -- -- 12 Norte 0 852.2 1 26
2019-06-16 00:00:00 11.4 -- -- 13 Norte 0 852 1.1 26
2019-06-15 23:00:00 11.7 -- -- 15 Norte 0 851.9 1.2 26
2019-06-15 22:00:00 12.1 -- -- 20 Norte 0 851.2 0.7 25
2019-06-15 21:00:00 16 -- -- 26 Norte 0 850.9 0.3 20
2019-06-15 20:00:00 17.8 -- -- 28 Norte 0 850.7 -0.1 20
2019-06-15 19:00:00 17.3 -- -- 30 Norte 0 850.5 -0.1 20
2019-06-15 18:00:00 17.4 -- -- 39 Norte 0 850.6 -0.1 21
2019-06-15 17:00:00 16.8 -- -- 26 Norte 0 850.8 -0.1 22
2019-06-15 16:00:00 16.6 -- -- 23 Norte 0 850.6 -0.3 25
2019-06-15 15:00:00 15.5 -- -- 20 Norte 0 850.7 -0.1 28
2019-06-15 14:00:00 13.9 -- -- 20 Norte 0 850.9 0.4 30
2019-06-15 13:00:00 12.6 -- -- 22 Norte 0 850.9 0.6 32
2019-06-15 12:00:00 11.6 -- -- 19 Norte 0 850.8 0.9 38
2019-06-15 11:00:00 8.8 -- -- 22 Norte 0 850.5 1 46
2019-06-15 10:00:00 6.8 -- -- 24 Norte 0 850.3 1.3 56
2019-06-15 09:00:00 4.9 -- -- 25 Norte 0 849.9 1.5 73
2019-06-15 08:00:00 3.9 -- -- 32 Norte 0 849.5 1.3 80
2019-06-15 07:00:00 3.6 -- -- 36 Norte 0 849 0.2 78
2019-06-15 06:00:00 4.1 -- -- 42 Norte 0 848.4 0 75
2019-06-15 05:00:00 4.5 -- -- 45 Norte 0 848.2 -0.3 71
2019-06-15 04:00:00 4.8 -- -- 38 Norte 0 848.8 0.2 69
2019-06-15 03:00:00 4.2 -- -- 41 Norte 0 848.4 0.6 67
2019-06-15 02:00:00 5.4 -- -- 48 Norte 0 848.5 1 60
2019-06-15 01:00:00 6.5 -- -- 48 Norte 0 848.6 1.4 49
2019-06-15 00:00:00 7.9 -- -- 48 Norte 0 847.8 1.4 40
2019-06-14 23:00:00 9.4 -- -- 48 Norte 0 847.5 1.8 35
2019-06-14 22:00:00 10.4 -- -- 29 Norte 0 847.2 1.9 29
2019-06-14 21:00:00 12.3 -- -- 27 Norte 0 846.4 1.2 22
2019-06-14 20:00:00 15.7 -- -- 30 Norte 0 845.7 0.4 19
2019-06-14 19:00:00 17.1 -- -- 30 Norte 0 845.3 0.1 18
2019-06-14 18:00:00 16.6 -- -- 32 Norte 0 845.2 0 19
2019-06-14 17:00:00 17.1 -- -- 33 Norte 0 845.3 0.2 19
2019-06-14 16:00:00 16.8 -- -- 32 Norte 0 845.2 0.3 19
2019-06-14 15:00:00 16 -- -- 33 Norte 0 845.2 0.5 20
2019-06-14 14:00:00 15.1 -- -- 29 Norte 0 845.1 0.4 20
2019-06-14 13:00:00 14.7 -- -- 26 Norte 0 844.9 0.3 19
2019-06-14 12:00:00 15.6 -- -- 25 Norte 0 844.7 0.5 21
2019-06-14 11:00:00 14.5 -- -- 23 Norte 0 844.7 1 21
2019-06-14 10:00:00 13.3 -- -- 25 Norte 0 844.6 0.8 25
2019-06-14 09:00:00 12.1 -- -- 16 Norte 0 844.2 0.5 26
2019-06-14 08:00:00 11.1 -- -- 23 Norte 0 843.7 0.3 26
2019-06-14 07:00:00 10.7 -- -- 15 Norte 0 843.8 0.2 24
2019-06-14 06:00:00 10.7 -- -- 10 Norte 0 843.7 -0.3 24
2019-06-14 05:00:00 11.5 -- -- 11 Norte 0 843.4 -0.5 24
2019-06-14 04:00:00 11.6 -- -- 11 Norte 0 843.6 -0.6 23
2019-06-14 03:00:00 11.4 -- -- 20 Norte 0 844 -0.7 21
2019-06-14 02:00:00 10.2 -- -- 29 Norte 0 843.9 -0.6 19
2019-06-14 01:00:00 11.5 -- -- 31 Norte 0 844.2 0.6 18
2019-06-14 00:00:00 11.1 -- -- 26 Norte 0 844.7 1.2 19
2019-06-13 23:00:00 12.6 -- -- 41 Norte 0 844.5 1.3 17
2019-06-13 22:00:00 14.3 -- -- 39 Norte 0 843.6 0.6 15
2019-06-13 21:00:00 14.8 -- -- 27 Norte 0 843.5 0.7 18
2019-06-13 20:00:00 16.9 -- -- 24 Norte 0 843.2 0.4 17
2019-06-13 19:00:00 17.7 -- -- 33 Norte 0 843 -0.1 14
2019-06-13 18:00:00 17.9 -- -- 36 Norte 0 842.8 -0.3 16
2019-06-13 17:00:00 18.5 -- -- 37 Norte 0 842.8 -0.7 15
2019-06-13 16:00:00 17.9 -- -- 42 Norte 0 843.1 -0.5 18
2019-06-13 15:00:00 17.6 -- -- 42 Norte 0 843.1 -0.4 21
2019-06-13 14:00:00 16.1 -- -- 54 Norte 0 843.5 0.1 27
2019-06-13 13:00:00 15.1 -- -- 46 Norte 0 843.6 0.3 32
2019-06-13 12:00:00 14.2 -- -- 44 Norte 0 843.5 0.4 39
2019-06-13 11:00:00 12.4 -- -- 37 Norte 0 843.4 0.4 51
2019-06-13 10:00:00 11 -- -- 33 Norte 0 843.3 0.5 58
2019-06-13 09:00:00 8.5 -- -- 31 Norte 0 843.1 0.6 73
2019-06-13 08:00:00 6.8 -- -- 28 Norte 0 843 0.6 77
2019-06-13 07:00:00 6.4 -- -- 26 Norte 0 842.8 0.5 71
2019-06-13 06:00:00 6.2 -- -- 24 Norte 0 842.5 -0.3 66
2019-06-13 05:00:00 6.7 -- -- 23 Norte 0 842.4 -0.8 52
2019-06-13 04:00:00 7.4 -- -- 31 Norte 0 842.3 -1.3 46
2019-06-13 03:00:00 12 -- -- 19 Norte 0 842.8 -0.9 18
2019-06-13 02:00:00 11.4 -- -- 13 Norte 0 843.2 -0.7 19
2019-06-13 01:00:00 10.3 -- -- 19 Norte 0 843.6 -0.2 21
2019-06-13 00:00:00 10.3 -- -- 19 Norte 0 843.7 0.2 18
2019-06-12 23:00:00 12.2 -- -- 19 Norte 0 843.9 0.5 18
2019-06-12 22:00:00 12.7 -- -- 20 Norte 0 843.8 0.5 18
2019-06-12 21:00:00 14.8 -- -- 21 Norte 0 843.5 -0.3 15
2019-06-12 20:00:00 14.9 -- -- 23 Norte 0 843.4 -0.3 14
2019-06-12 19:00:00 14.3 -- -- 24 Norte 0 843.3 -1 18
2019-06-12 18:00:00 16.1 -- -- 32 Norte 0 843.8 -1.1 17
2019-06-12 17:00:00 14.3 -- -- 34 Norte 0 843.7 -1.5 20
2019-06-12 16:00:00 15.9 -- -- 27 Norte 0 844.3 -0.9 21
2019-06-12 15:00:00 13.4 -- -- 23 Norte 0 844.9 -0.7 25
2019-06-12 14:00:00 12.5 -- -- 31 Norte 0 845.2 -0.5 27
2019-06-12 13:00:00 10.9 -- -- 28 Norte 0 845.2 -0.3 32
2019-06-12 12:00:00 10.5 -- -- 30 Norte 0 845.6 0.1 36
2019-06-12 11:00:00 8.6 -- -- 25 Norte 0 845.7 0.4 35
2019-06-12 10:00:00 7.6 -- -- 25 Norte 0 845.5 0.6 39
2019-06-12 09:00:00 4.9 -- -- 13 Norte 0 845.5 0.6 55
2019-06-12 08:00:00 3.2 -- -- 13 Norte 0 845.3 0.4 59
2019-06-12 07:00:00 1.6 -- -- 14 Norte 0 844.9 -0.3 66
2019-06-12 06:00:00 0.6 -- -- 24 Norte 0 844.9 -0.6 64
2019-06-12 05:00:00 1.9 -- -- 23 Norte 0 844.9 -1 53
2019-06-12 04:00:00 2.8 -- -- 16 Norte 0 845.2 -1.2 47
2019-06-12 03:00:00 3.4 -- -- 7 Norte 0 845.5 -0.9 43
2019-06-12 02:00:00 4.5 -- -- 15 Norte 0 845.9 -0.5 40
2019-06-12 01:00:00 4.7 -- -- 18 Norte 0 846.4 0.5 37
2019-06-12 00:00:00 5.2 -- -- 13 Norte 0 846.4 0.4 33
2019-06-11 23:00:00 7 -- -- 15 Norte 0 846.4 0.8 30
2019-06-11 22:00:00 7.6 -- -- 20 Norte 0 845.9 0.7 26
2019-06-11 21:00:00 10.3 -- -- 32 Norte 0 846 0.6 22
2019-06-11 20:00:00 10.7 -- -- 37 Norte 0 845.6 0.2 22
2019-06-11 19:00:00 11.9 -- -- 46 Norte 0 845.2 -0.6 20
2019-06-11 18:00:00 11.2 -- -- 41 Norte 0 845.4 -0.1 20
2019-06-11 17:00:00 11.9 -- -- 38 Norte 0 845.4 -0.1 22
2019-06-11 16:00:00 10.9 -- -- 35 Norte 0 845.8 1 29
2019-06-11 15:00:00 8.8 -- -- 41 Norte 0 845.5 1.4 32
2019-06-11 14:00:00 9.6 -- -- 50 Norte 0 845.5 1.5 34
2019-06-11 13:00:00 8.8 -- -- 56 Norte 0 844.8 0.7 39
2019-06-11 12:00:00 7.3 -- -- 56 Norte 0 844.1 0.6 47
2019-06-11 11:00:00 5.9 -- -- 51 Norte 0 844 0.3 55
2019-06-11 10:00:00 5.7 -- -- 49 Norte 0 844.1 0.5 56
2019-06-11 09:00:00 4.1 -- -- 51 Norte 0 843.5 -0.1 79
2019-06-11 08:00:00 3.6 -- -- 42 Norte 0 843.7 -0.1 83
2019-06-11 07:00:00 3.9 -- -- 42 Norte 0 843.6 -0.5 82
2019-06-11 06:00:00 4.7 -- -- 42 Norte 0 843.6 -1 73
2019-06-11 05:00:00 5.6 -- -- 50 Norte 0 843.8 -1.2 59
2019-06-11 04:00:00 7 -- -- 49 Norte 0 844.1 -1.5 45
2019-06-11 03:00:00 7.1 -- -- 49 Norte 0 844.6 -1.4 34
2019-06-11 02:00:00 7.8 -- -- 47 Norte 0 845 -1 28
2019-06-11 01:00:00 9.1 -- -- 40 Norte 0 845.6 -0.4 26
2019-06-11 00:00:00 9.5 -- -- 44 Norte 0 846 0 26
2019-06-10 23:00:00 10.1 -- -- 40 Norte 0 846 -0.2 25
2019-06-10 22:00:00 10.8 -- -- 35 Norte 0 846 -0.7 22
2019-06-10 21:00:00 14 -- -- 35 Norte 0 846 -0.9 16
2019-06-10 20:00:00 15.3 -- -- 41 Norte 0 846.2 -1.1 14
2019-06-10 19:00:00 16.2 -- -- 40 Norte 0 846.7 -0.9 15
2019-06-10 18:00:00 15.6 -- -- 43 Norte 0 846.9 -1.2 17
2019-06-10 17:00:00 16 -- -- 45 Norte 0 847.3 -1.2 18
2019-06-10 16:00:00 14.2 -- -- 44 Norte 0 847.6 -1.3 22
2019-06-10 15:00:00 14.2 -- -- 43 Norte 0 848.1 -0.8 26
2019-06-10 14:00:00 12.6 -- -- 37 Norte 0 848.5 -0.1 29
2019-06-10 13:00:00 11.9 -- -- 38 Norte 0 848.9 0.3 35
2019-06-10 12:00:00 10.3 -- -- 40 Norte 0 848.9 0.5 46
2019-06-10 11:00:00 7.8 -- -- 39 Norte 0 848.6 0.4 61
2019-06-10 10:00:00 6.2 -- -- 38 Norte 0 848.6 0.6 77
2019-06-10 09:00:00 5.8 -- -- 34 Norte 0 848.4 0.3 83
2019-06-10 08:00:00 5.3 -- -- 30 Norte 0 848.2 0.1 83
2019-06-10 07:00:00 5.3 -- -- 32 Norte 0 848 -0.7 83
2019-06-10 06:00:00 4.8 -- -- 33 Norte 0 848.1 -1 83
2019-06-10 05:00:00 4.3 -- -- 35 Norte 0 848.1 -1.1 83
2019-06-10 04:00:00 5.1 -- -- 35 Norte 0 848.7 -0.2 67
2019-06-10 03:00:00 6.1 -- -- 41 Norte 0 849.1 -0.1 62
2019-06-10 02:00:00 7.1 -- -- 48 Norte 0 849.2 0.2 53
2019-06-10 01:00:00 8.4 -- -- 46 Norte 0 848.9 0.5 45
2019-06-10 00:00:00 9.6 -- -- 50 Norte 0 849.2 1.3 39
2019-06-09 23:00:00 10.8 -- -- 50 Norte 0 849 1.2 33
2019-06-09 22:00:00 12.6 -- -- 50 Norte 0 848.4 0.8 27
2019-06-09 21:00:00 14.1 -- -- 43 Norte 0 847.9 0.2 24
2019-06-09 20:00:00 14.8 -- -- 46 Norte 0 847.8 0 23
2019-06-09 19:00:00 17.5 -- -- 35 Norte 0 847.6 -0.4 22
2019-06-09 18:00:00 18.5 -- -- 34 Norte 0 847.7 -0.5 20
2019-06-09 17:00:00 17.9 -- -- 31 Norte 0 847.8 -0.8 20
2019-06-09 16:00:00 18.2 -- -- 30 Norte 0 848 -0.9 21
2019-06-09 15:00:00 18.6 -- -- 31 Norte 0 848.2 -0.7 22
2019-06-09 14:00:00 17.5 -- -- 28 Norte 0 848.6 -0.5 24
2019-06-09 13:00:00 16.1 -- -- 29 Norte 0 848.9 -0.1 26
2019-06-09 12:00:00 15.5 -- -- 25 Norte 0 848.9 0 25
2019-06-09 11:00:00 14.8 -- -- 31 Norte 0 849.1 0.3 22
2019-06-09 10:00:00 13 -- -- 27 Norte 0 849 0.4 33
2019-06-09 09:00:00 12 -- -- 16 Norte 0 848.9 0.2 56
2019-06-09 08:00:00 10.1 -- -- 16 Norte 0 848.8 -0.2 66
2019-06-09 07:00:00 7.9 -- -- 16 Norte 0 848.6 -0.9 58
2019-06-09 06:00:00 8.5 -- -- 12 Norte 0 848.7 -1 46
2019-06-09 05:00:00 8.2 -- -- 11 Norte 0 849 -0.9 43
2019-06-09 04:00:00 9.5 -- -- 9 Norte 0 849.5 -0.4 54
2019-06-09 03:00:00 10.3 -- -- 19 Norte 0 849.7 -0.7 51
2019-06-09 02:00:00 11.3 -- -- 18 Norte 0 849.9 -0.6 35
2019-06-09 01:00:00 12.4 -- -- 18 Norte 0 849.9 -0.2 19
2019-06-09 00:00:00 13.1 -- -- 21 Norte 0 850.4 0.6 19
2019-06-08 23:00:00 13.5 -- -- 18 Norte 0 850.5 0.9 18
2019-06-08 22:00:00 14.3 -- -- 19 Norte 0 850.1 0.7 17
2019-06-08 21:00:00 15.3 -- -- 19 Norte 0 849.8 0.2 17
2019-06-08 20:00:00 17.4 -- -- 19 Norte 0 849.6 0 16
2019-06-08 19:00:00 17.8 -- -- 38 Norte 0 849.4 -0.7 17
2019-06-08 18:00:00 18.1 -- -- 35 Norte 0 849.6 -0.6 18
2019-06-08 17:00:00 18.9 -- -- 37 Norte 0 849.6 -1.4 19
2019-06-08 16:00:00 17.7 -- -- 45 Norte 0 850.1 -0.8 21
2019-06-08 15:00:00 17.9 -- -- 48 Norte 0 850.2 -0.7 26
2019-06-08 14:00:00 16.8 -- -- 46 Norte 0 851 -0.1 28
2019-06-08 13:00:00 15.9 -- -- 48 Norte 0 850.9 -0.5 29
2019-06-08 12:00:00 13.9 -- -- 46 Norte 0 850.9 -0.3 28
2019-06-08 11:00:00 13.6 -- -- 40 Norte 0 851.1 -0.2 28
2019-06-08 10:00:00 12 -- -- 40 Norte 0 851.4 0.4 29
2019-06-08 09:00:00 9.9 -- -- 32 Norte 0 851.2 0 30
2019-06-08 08:00:00 8.4 -- -- 27 Norte 0 851.3 -0.1 33
2019-06-08 07:00:00 6 -- -- 26 Norte 0 851 -0.4 36
2019-06-08 06:00:00 5.6 -- -- 22 Norte 0 851.2 -0.5 37
2019-06-08 05:00:00 5.9 -- -- 19 Norte 0 851.4 -0.3 37
2019-06-08 04:00:00 5.2 -- -- 13 Norte 0 851.4 -0.5 37
2019-06-08 03:00:00 5.5 -- -- 17 Norte 0 851.7 0.1 38
2019-06-08 02:00:00 5.5 -- -- 18 Norte 0 851.7 0.2 37
2019-06-08 01:00:00 5.7 -- -- 19 Norte 0 851.9 0.9 36
2019-06-08 00:00:00 5.6 -- -- 18 Norte 0 851.6 1.1 36
2019-06-07 23:00:00 6.1 -- -- 19 Norte 0 851.5 1.2 35
2019-06-07 22:00:00 6.8 -- -- 27 Norte 0 851 1.3 33
2019-06-07 21:00:00 10.3 -- -- 29 Norte 0 850.5 1.1 26
2019-06-07 20:00:00 11.7 -- -- 32 Norte 0 850.3 1.2 23
2019-06-07 19:00:00 12.2 -- -- 37 Norte 0 849.7 0.8 22
2019-06-07 18:00:00 11.6 -- -- 37 Norte 0 849.4 1.1 24
2019-06-07 17:00:00 11.4 -- -- 40 Norte 0 849.1 1.2 27
2019-06-07 16:00:00 10.9 -- -- 40 Norte 0 848.9 1.5 29
2019-06-07 15:00:00 9.4 -- -- 41 Norte 0 848.3 1.8 33
2019-06-07 14:00:00 8.9 -- -- 44 Norte 0 847.9 1.9 37
2019-06-07 13:00:00 6.6 -- -- 47 Norte 0 847.4 3 43
2019-06-07 12:00:00 6.3 -- -- 46 Norte 0 846.5 2.9 45
2019-06-07 11:00:00 3.6 -- -- 57 Norte 0 846 3.3 62
2019-06-07 10:00:00 2.7 -- -- 63 Norte 0 844.4 2.3 77
2019-06-07 09:00:00 2 -- -- 67 Norte 0 843.6 1.7 78
2019-06-07 08:00:00 1 -- -- 63 Norte 0 842.7 0.9 84
2019-06-07 07:00:00 0.8 -- -- 60 Norte 0 842.1 0.5 84
2019-06-07 06:00:00 0.7 -- -- 57 Norte 0 841.9 0.3 84
2019-06-07 05:00:00 1.8 -- -- 56 Norte 0.3 841.8 0.5 84
2019-06-07 04:00:00 2.5 -- -- 48 Norte 0.7 841.6 0 84
2019-06-07 03:00:00 3 -- -- 43 Norte 0.8 841.6 0 84
2019-06-07 02:00:00 5.2 -- -- 43 Norte 0.3 841.3 -0.4 83
2019-06-07 01:00:00 7.9 -- -- 44 Norte 0 841.6 0.4 67
2019-06-07 00:00:00 9 -- -- 31 Norte 0 841.6 0.9 46
2019-06-06 23:00:00 9.9 -- -- 32 Norte 0 841.7 0.7 35
2019-06-06 22:00:00 10.4 -- -- 48 Norte 0 841.2 0.2 32
2019-06-06 21:00:00 11.3 -- -- 42 Norte 0 840.7 -1 28
2019-06-06 20:00:00 12.8 -- -- 46 Norte 0 841 -1.4 26
2019-06-06 19:00:00 14.4 -- -- 54 Norte 0 841 -1.6 25
2019-06-06 18:00:00 13.4 -- -- 44 Norte 0 841.7 -1.3 25
2019-06-06 17:00:00 13.9 -- -- 49 Norte 0 842.4 -0.7 23
2019-06-06 16:00:00 13.7 -- -- 67 Norte 0 842.6 -0.7 22
2019-06-06 15:00:00 12.7 -- -- 55 Norte 0 843 -0.5 22
2019-06-06 14:00:00 11.4 -- -- 51 Norte 0 843.1 -0.5 22
2019-06-06 13:00:00 11.1 -- -- 51 Norte 0 843.3 -0.6 29
2019-06-06 12:00:00 10.1 -- -- 41 Norte 0 843.5 -0.7 32
2019-06-06 11:00:00 9 -- -- 40 Norte 0 843.6 -0.5 39
2019-06-06 10:00:00 7.9 -- -- 36 Norte 0 843.9 -0.4 43
2019-06-06 09:00:00 7.2 -- -- 29 Norte 0 844.2 -0.5 47
2019-06-06 08:00:00 5.4 -- -- 20 Norte 0 844.1 -0.3 53
2019-06-06 07:00:00 2 -- -- 16 Norte 0 844.3 -0.5 70
2019-06-06 06:00:00 1.6 -- -- 25 Norte 0 844.7 -0.6 68
2019-06-06 05:00:00 2.3 -- -- 28 Norte 0 844.4 -0.8 64
2019-06-06 04:00:00 2.9 -- -- 30 Norte 0 844.8 -0.8 60
2019-06-06 03:00:00 3.1 -- -- 32 Norte 0 845.3 -0.2 58
2019-06-06 02:00:00 4 -- -- 36 Norte 0 845.2 -0.1 50
2019-06-06 01:00:00 5.1 -- -- 37 Norte 0 845.6 0.6 45
2019-06-06 00:00:00 5.6 -- -- 35 Norte 0 845.5 0.4 44
2019-06-05 23:00:00 6.2 -- -- 31 Norte 0 845.3 0.5 39
2019-06-05 22:00:00 7 -- -- 31 Norte 0 845 0.4 33
2019-06-05 21:00:00 8.5 -- -- 33 Norte 0 845.1 0.6 28
2019-06-05 20:00:00 9.9 -- -- 40 Norte 0 844.8 0.3 25
2019-06-05 19:00:00 11.1 -- -- 41 Norte 0 844.6 0.1 24
2019-06-05 18:00:00 11.3 -- -- 45 Norte 0 844.5 0.1 23
2019-06-05 17:00:00 9.7 -- -- 50 Norte 0 844.5 0.6 27
2019-06-05 16:00:00 9.6 -- -- 47 Norte 0 844.5 0.7 29
2019-06-05 15:00:00 8.5 -- -- 54 Norte 0 844.4 1.5 33
2019-06-05 14:00:00 8.3 -- -- 63 Norte 0 843.9 1.8 39
2019-06-05 13:00:00 6.8 -- -- 66 Norte 0 843.8 2.2 48
2019-06-05 12:00:00 4.7 -- -- 66 Norte 0 842.9 1.9 57
2019-06-05 11:00:00 3.5 -- -- 77 Norte 0 842.1 1.5 84
2019-06-05 10:00:00 2.7 -- -- 74 Norte 0 841.6 1.3 84
2019-06-05 09:00:00 2.2 -- -- 68 Norte 0 841 0.5 84
2019-06-05 08:00:00 2.3 -- -- 68 Norte 0.4 840.6 -0.3 84
2019-06-05 07:00:00 2.8 -- -- 64 Norte 0.6 840.3 -1.1 84
2019-06-05 06:00:00 3.3 -- -- 49 Norte 0.1 840.5 -1.3 84
2019-06-05 05:00:00 3.6 -- -- 58 Norte 0.1 840.9 -0.9 83
2019-06-05 04:00:00 5 -- -- 58 Norte 0 841.4 -0.6 79
2019-06-05 03:00:00 8 -- -- 46 Norte 0 841.8 -0.8 64
2019-06-05 02:00:00 8.8 -- -- 42 Norte 0 841.8 -0.9 66
2019-06-05 01:00:00 9.4 -- -- 35 Norte 0 842 -1 69
2019-06-05 00:00:00 9.5 -- -- 37 Norte 0 842.6 -0.6 69
2019-06-04 23:00:00 10.5 -- -- 32 Norte 0 842.7 -0.8 66
2019-06-04 22:00:00 11.3 -- -- 42 Norte 0 843 -0.3 63
2019-06-04 21:00:00 12.6 -- -- 46 Norte 0 843.2 -0.2 56
2019-06-04 20:00:00 14.9 -- -- 48 Norte 0 843.5 -0.2 33
2019-06-04 19:00:00 17.7 -- -- 43 Norte 0 843.3 -0.8 26
2019-06-04 18:00:00 20.2 -- -- 41 Norte 0 843.4 -0.9 20
2019-06-04 17:00:00 20.5 -- -- 39 Norte 0 843.7 -1.1 22
2019-06-04 16:00:00 20.1 -- -- 30 Norte 0 844.1 -1.3 25
2019-06-04 15:00:00 20.1 -- -- 25 Norte 0 844.3 -1.1 29
2019-06-04 14:00:00 18.9 -- -- 27 Norte 0 844.8 -0.6 28
2019-06-04 13:00:00 17.9 -- -- 31 Norte 0 845.4 -0.3 26
2019-06-04 12:00:00 18.4 -- -- 27 Norte 0 845.4 -0.3 23
2019-06-04 11:00:00 17.7 -- -- 27 Norte 0 845.4 -0.1 24
2019-06-04 10:00:00 15.7 -- -- 23 Norte 0 845.7 0.2 39
2019-06-04 09:00:00 14.8 8 Este 21 Norte 0 845.7 0.2 34
2019-06-04 08:00:00 13.1 6 Este 25 Norte 0 845.5 -0.3 30
2019-06-04 07:00:00 14.2 6 Este 24 Norte 0 845.5 -0.7 26
2019-06-04 06:00:00 15.3 15 Este 44 Norte 0 845.5 -1.6 25
2019-06-04 05:00:00 15.6 22 Este 41 Norte 0 845.8 -2 22
2019-06-04 04:00:00 16.5 22 Este 37 Norte 0 846.2 -2.3 22
2019-06-04 03:00:00 15.8 15 Este 26 Norte 0 847.1 -1.5 22
2019-06-04 02:00:00 16.2 14 Este 26 Norte 0 847.8 -1 22
2019-06-04 01:00:00 16.3 9 Este 14 Norte 0 848.5 -0.3 22
2019-06-04 00:00:00 16.2 9 Este 25 Norte 0 848.6 -0.2 21
2019-06-03 23:00:00 18.4 18 Este 30 Norte 0 848.8 -0.1 19
2019-06-03 22:00:00 18.6 10 Este 26 Norte 0 848.8 -0.3 18
2019-06-03 21:00:00 21.2 13 Este 33 Norte 0 848.8 -0.5 15
2019-06-03 20:00:00 22.5 15 Este 41 Norte 0 848.9 -0.3 14
2019-06-03 19:00:00 23 22 Este 45 Norte 0 849.1 -0.4 14
2019-06-03 18:00:00 23.4 24 Este 45 Norte 0 849.3 -0.8 14
2019-06-03 17:00:00 24.2 23 Este 44 Norte 0 849.2 -1.5 16
2019-06-03 16:00:00 24.3 22 Este 42 Norte 0 849.5 -1.4 17
2019-06-03 15:00:00 23.7 12 Este 37 Norte 0 850.1 -- 19
2019-06-03 14:00:00 22.9 8 Este 27 Norte 0 850.7 0 22
2019-06-03 13:00:00 21.4 15 Este 31 Norte 0 850.9 0 25
2019-06-03 12:00:00 -- 15 Este 23 Norte 0 -- -- --
2019-06-03 11:00:00 19.7 10 Este 17 Norte 0 850.7 0.1 28
2019-06-03 10:00:00 17.9 0 Calma 13 Norte 0 850.9 0.2 31
2019-06-03 09:00:00 17.9 7 Este 13 Norte 0 850.7 0 27
2019-06-03 08:00:00 18.2 6 Este 17 Norte 0 850.6 -0.1 26
2019-06-03 07:00:00 16.8 9 Este 15 Norte 0 850.7 0.2 27
2019-06-03 06:00:00 14.5 4 Este 13 Norte 0 850.7 -0.3 29
2019-06-03 05:00:00 13.9 12 Este 25 Norte 0 850.7 -0.7 29
2019-06-03 04:00:00 14.6 18 Este 30 Norte 0 850.5 -1 28
2019-06-03 03:00:00 15.3 22 Este 37 Norte 0 851 -0.8 27
2019-06-03 02:00:00 15.1 26 Este 39 Norte 0 851.4 -0.3 27
2019-06-03 01:00:00 16.8 19 Este 27 Norte 0 851.5 0.1 25
2019-06-03 00:00:00 16.9 19 Este 26 Norte 0 851.8 0.6 25
2019-06-02 23:00:00 18 19 Este 30 Norte 0 851.7 0.5 25
2019-06-02 22:00:00 18.5 22 Este 31 Norte 0 851.4 0.2 25
2019-06-02 21:00:00 19.8 14 Este 35 Norte 0 851.2 0 24
2019-06-02 20:00:00 21.1 19 Este 29 Norte 0 851.2 -0.3 22
2019-06-02 19:00:00 22.9 6 Este 14 Norte 0 851.2 -0.6 21
2019-06-02 18:00:00 23.8 3 Este 16 Norte 0 851.2 -0.9 20
2019-06-02 17:00:00 23.3 4 Este 18 Norte 0 851.5 -1.4 20
2019-06-02 16:00:00 24.1 4 Este 22 Norte 0 851.8 -1.2 21
2019-06-02 15:00:00 23.1 11 Este 22 Norte 0 852.1 -0.9 22
2019-06-02 14:00:00 21.9 11 Este 21 Norte 0 852.9 -0.1 25
2019-06-02 13:00:00 21.8 12 Este 22 Norte 0 853 0.2 25
2019-06-02 12:00:00 21 10 Este 17 Norte 0 853 0.4 26
2019-06-02 11:00:00 21 10 Este 19 Norte 0 853 0.6 24
2019-06-02 10:00:00 20.2 6 Este 12 Norte 0 852.8 0.5 25
2019-06-02 09:00:00 17.9 8 Este 10 Norte 0 852.6 0.2 30
2019-06-02 08:00:00 15.9 4 Este 9 Norte 0 852.4 -0.1 29
2019-06-02 07:00:00 14.6 3 Este 7 Norte 0 852.3 0 29
2019-06-02 06:00:00 14.8 6 Este 8 Norte 0 852.4 -0.2 28
2019-06-02 05:00:00 15 6 Este 19 Norte 0 852.5 -0.4 27
2019-06-02 04:00:00 14.1 18 Este 30 Norte 0 852.3 -0.8 30
2019-06-02 03:00:00 15.6 22 Este 30 Norte 0 852.6 -0.4 27
2019-06-02 02:00:00 16.6 14 Este 22 Norte 0 852.9 -0.3 25
2019-06-02 01:00:00 18.2 12 Este 25 Norte 0 853.1 0.4 22
2019-06-02 00:00:00 20.3 14 Este 27 Norte 0 853 0.4 19
2019-06-01 23:00:00 20.4 15 Este 23 Norte 0 853.2 0.9 21
2019-06-01 22:00:00 20.7 15 Este 23 Norte 0 852.7 0.1 20
2019-06-01 21:00:00 22.7 9 Este 14 Norte 0 852.6 -0.1 18
2019-06-01 20:00:00 24.1 7 Este 17 Norte 0 852.3 -0.4 17
2019-06-01 19:00:00 24.7 9 Este 21 Norte 0 852.6 -0.8 18
2019-06-01 18:00:00 24.5 10 Este 23 Norte 0 852.7 -1.1 20
2019-06-01 17:00:00 25.2 8 Este 24 Norte 0 852.7 -1.7 21
2019-06-01 16:00:00 22.9 13 Este 24 Norte 0 853.4 -1.3 22
2019-06-01 15:00:00 22.7 11 Este 25 Norte 0 853.8 -0.8 24
2019-06-01 14:00:00 21.4 12 Este 26 Norte 0 854.4 -0.2 25
2019-06-01 13:00:00 20.2 14 Este 24 Norte 0 854.7 0.2 27
2019-06-01 12:00:00 18.7 12 Este 23 Norte 0 854.6 0.5 28
2019-06-01 11:00:00 18.1 13 Este 22 Norte 0 854.6 0.3 30
2019-06-01 10:00:00 17.8 12 Este 19 Norte 0 854.5 0.6 27
2019-06-01 09:00:00 16.5 13 Este 20 Norte 0 854.1 0.1 27
2019-06-01 08:00:00 15.1 15 Este 21 Norte 0 854.3 0.1 28
2019-06-01 07:00:00 13.1 16 Este 22 Norte 0 853.9 -0.5 28
2019-06-01 06:00:00 13.3 17 Este 24 Norte 0 854 -0.3 27
2019-06-01 05:00:00 13.5 14 Este 22 Norte 0 854.2 -0.3 26
2019-06-01 04:00:00 14 15 Este 25 Norte 0 854.4 -0.3 26
2019-06-01 03:00:00 15.3 13 Este 20 Norte 0 854.3 -0.6 23
2019-06-01 02:00:00 16.2 11 Este 15 Norte 0 854.5 -0.4 23
2019-06-01 01:00:00 18.1 8 Este 16 Norte 0 854.7 0.2 21
2019-06-01 00:00:00 18 8 Este 15 Norte 0 854.9 0.7 20
2019-05-31 23:00:00 18.7 6 Este 13 Norte 0 854.9 0.8 20
2019-05-31 22:00:00 19.3 8 Este 13 Norte 0 854.5 0.2 21
2019-05-31 21:00:00 21.2 7 Este 14 Norte 0 854.2 -0.2 21
2019-05-31 20:00:00 22.9 7 Este 14 Norte 0 854.1 -0.5 21
2019-05-31 19:00:00 23 10 Este 19 Norte 0 854.3 -0.7 20
2019-05-31 18:00:00 23.7 13 Este 27 Norte 0 854.4 -0.9 21
2019-05-31 17:00:00 22.9 13 Este 25 Norte 0 854.6 -1 22
2019-05-31 16:00:00 22.3 5 Este 23 Norte 0 855 -1 23
2019-05-31 15:00:00 22.2 12 Este 23 Norte 0 855.3 -0.6 24
2019-05-31 14:00:00 20.7 10 Este 24 Norte 0 855.6 -0.4 25
2019-05-31 13:00:00 19.7 12 Este 23 Norte 0 856 -0.1 26
2019-05-31 12:00:00 18.8 12 Este 21 Norte 0 855.9 -0.2 28
2019-05-31 11:00:00 17.2 12 Este 19 Norte 0 856 0.3 28
2019-05-31 10:00:00 16.6 12 Este 20 Norte 0 856.1 0.5 28
2019-05-31 09:00:00 15.5 13 Este 19 Norte 0 856.1 0.5 32
2019-05-31 08:00:00 14.1 12 Este 17 Norte 0 855.7 -0.1 32
2019-05-31 07:00:00 12.5 14 Este 17 Norte 0 855.6 -0.5 30
2019-05-31 06:00:00 12.8 12 Este 20 Norte 0 855.6 -0.8 29
2019-05-31 05:00:00 13.1 13 Este 24 Norte 0 855.8 -0.8 30
2019-05-31 04:00:00 12.9 17 Este 28 Norte 0 856.1 -0.5 29
2019-05-31 03:00:00 14.5 21 Este 33 Norte 0 856.4 -0.4 25
2019-05-31 02:00:00 14.4 16 Este 25 Norte 0 856.6 0.1 21
2019-05-31 01:00:00 15.4 15 Este 31 Norte 0 856.6 0.7 18
2019-05-31 00:00:00 15.9 14 Este 27 Norte 0 856.8 1.2 19
2019-05-30 23:00:00 16.5 10 Este 17 Norte 0 856.5 1.3 19
2019-05-30 22:00:00 18.6 6 Este 14 Norte 0 855.9 0.4 15
2019-05-30 21:00:00 21.5 3 Este 12 Norte 0 855.6 0 14
2019-05-30 20:00:00 21.8 4 Este 11 Norte 0 855.2 -0.7 15
2019-05-30 19:00:00 22.3 5 Este 21 Norte 0 855.5 -0.7 18
2019-05-30 18:00:00 21.7 6 Este 43 Norte 0 855.6 -0.9 19
2019-05-30 17:00:00 21.5 9 Este 23 Norte 0 855.9 -0.7 19
2019-05-30 16:00:00 20.9 9 Este 19 Norte 0 856.2 -0.4 20
2019-05-30 15:00:00 20 6 Este 15 Norte 0 856.5 -0.1 24
2019-05-30 14:00:00 19.1 5 Este 27 Norte 0 856.6 0.2 24
2019-05-30 13:00:00 18.7 4 Este 17 Norte 0 856.6 0.2 27
2019-05-30 12:00:00 17.2 4 Este 17 Norte 0 856.6 0.4 30
2019-05-30 11:00:00 14.4 7 Este 14 Norte 0 856.4 0.5 36
2019-05-30 10:00:00 12.3 10 Este 16 Norte 0 856.4 1 38
2019-05-30 09:00:00 11 9 Este 13 Norte 0 856.2 0.8 39
2019-05-30 08:00:00 9.9 7 Este 9 Norte 0 855.9 0.7 37
2019-05-30 07:00:00 9.6 4 Este 9 Norte 0 855.4 -0.1 37
2019-05-30 06:00:00 9.3 9 Este 12 Norte 0 855.4 -0.4 39
2019-05-30 05:00:00 8.4 6 Este 9 Norte 0 855.2 -0.9 44
2019-05-30 04:00:00 10.8 4 Este 14 Norte 0 855.5 -0.5 35
2019-05-30 03:00:00 7.8 9 Este 14 Norte 0 855.8 -0.1 52
2019-05-30 02:00:00 11.8 5 Este 11 Norte 0 856.1 0.2 28
2019-05-30 01:00:00 11.4 0 Calma 12 Norte 0 856 0.7 32
2019-05-30 00:00:00 9.7 8 Este 15 Norte 0 855.9 1 43
2019-05-29 23:00:00 10.1 12 Este 27 Norte 0 855.9 1.4 39
2019-05-29 22:00:00 11.9 10 Este 32 Norte 0 855.3 1 36
2019-05-29 21:00:00 14.2 17 Este 30 Norte 0 854.9 0.5 30
2019-05-29 20:00:00 16.4 18 Este 36 Norte 0 854.5 0.4 25
2019-05-29 19:00:00 17.2 14 Este 33 Norte 0 854.3 0.3 25
2019-05-29 18:00:00 16.8 22 Este 39 Norte 0 854.4 0.4 25
2019-05-29 17:00:00 17.3 20 Este 36 Norte 0 854.1 0.1 27
2019-05-29 16:00:00 16.2 19 Este 37 Norte 0 854 0.4 28
2019-05-29 15:00:00 16 16 Este 32 Norte 0 854 0.3 29
2019-05-29 14:00:00 16.1 13 Este 32 Norte 0 854 0.5 31
2019-05-29 13:00:00 14.7 14 Este 29 Norte 0 853.6 0.6 33
2019-05-29 12:00:00 12.9 10 Este 37 Norte 0 853.7 0.8 32
2019-05-29 11:00:00 9.5 22 Este 38 Norte 0 853.5 1.1 42
2019-05-29 10:00:00 6.8 21 Este 32 Norte 0 853 1.2 54
2019-05-29 09:00:00 4 21 Este 31 Norte 0 852.9 1 62
2019-05-29 08:00:00 4.3 15 Este 31 Norte 0 852.4 0.6 59
2019-05-29 07:00:00 1.6 22 Este 35 Norte 0 851.8 -0.2 77
2019-05-29 06:00:00 1.6 26 Este 35 Norte 0 851.9 0 76
2019-05-29 05:00:00 1.9 20 Este 28 Norte 0 851.8 0.1 74
2019-05-29 04:00:00 2.7 19 Este 25 Norte 0 852 0.3 68
2019-05-29 03:00:00 3.4 19 Este 51 Norte 0 851.9 0.3 62
2019-05-29 02:00:00 4.6 18 Este 33 Norte 0 851.7 0.8 56
2019-05-29 01:00:00 5.7 19 Este 26 Norte 0 851.7 1.2 51
2019-05-29 00:00:00 7.2 13 Este 33 Norte 0 851.6 1.3 45
2019-05-28 23:00:00 8.7 21 Este 35 Norte 0 850.9 1.1 37
2019-05-28 22:00:00 9.7 22 Este 35 Norte 0 850.5 1.1 33
2019-05-28 21:00:00 11.5 18 Este 35 Norte 0 850.3 1.2 28
2019-05-28 20:00:00 12.8 23 Este 51 Norte 0 849.8 0.8 25
2019-05-28 19:00:00 13.4 28 Este 46 Norte 0 849.4 0.1 24
2019-05-28 18:00:00 15.6 30 Este 53 Norte 0 849.1 -0.2 22
2019-05-28 17:00:00 15.2 28 Este 46 Norte 0 849 -0.3 19
2019-05-28 16:00:00 16.1 21 Este 41 Norte 0 849.3 0.2 21
2019-05-28 15:00:00 13.7 24 Este 37 Norte 0 849.3 0.4 22
2019-05-28 14:00:00 13.2 23 Este 42 Norte 0 849.3 1 24
2019-05-28 13:00:00 11.8 27 Este 43 Norte 0 849.1 1.2 29
2019-05-28 12:00:00 10.1 28 Este 48 Norte 0 848.9 1.4 38
2019-05-28 11:00:00 8.1 30 Este 46 Norte 0 848.3 1.1 58
2019-05-28 10:00:00 4.9 30 Este 45 Norte 0 847.9 0.9 83
2019-05-28 09:00:00 3.7 30 Este 42 Norte 0 847.5 1.1 84
2019-05-28 08:00:00 3.7 25 Este 42 Norte 0 847.2 0.7 84
2019-05-28 07:00:00 4.3 23 Este 32 Norte 0 847 -0.1 84
2019-05-28 06:00:00 5 22 Este 32 Norte 0 846.4 -0.7 84
2019-05-28 05:00:00 5.5 23 Este 31 Norte 0 846.5 -0.9 83
2019-05-28 04:00:00 6.4 16 Este 21 Norte 0 847.1 -0.5 78
2019-05-28 03:00:00 7.5 13 Este 17 Norte 0 847.1 -0.4 68
2019-05-28 02:00:00 9.4 7 Este 10 Norte 0 847.4 0.3 53
2019-05-28 01:00:00 10.6 7 Este 11 Norte 0 847.6 0.8 48
2019-05-28 00:00:00 12 6 Este 20 Norte 0 847.5 0.6 44
2019-05-27 23:00:00 12.4 13 Este 26 Norte 0 847.1 0.7 40
2019-05-27 22:00:00 13.2 15 Este 32 Norte 0 846.8 0.5 38
2019-05-27 21:00:00 15.2 18 Este 33 Norte 0 846.9 0.4 32
2019-05-27 20:00:00 17.1 19 Este 39 Norte 0 846.4 -0.4 28
2019-05-27 19:00:00 18.4 22 Este 41 Norte 0 846.3 -0.9 28
2019-05-27 18:00:00 17.9 25 Este 43 Norte 0 846.5 -0.9 26
2019-05-27 17:00:00 18.2 19 Este 39 Norte 0 846.8 -1 27
2019-05-27 16:00:00 17.9 26 Este 44 Norte 0 847.2 -1 28
2019-05-27 15:00:00 18.4 19 Este 39 Norte 0 847.4 -0.4 29
2019-05-27 14:00:00 17 19 Este 40 Norte 0 847.8 0 32
2019-05-27 13:00:00 15.6 26 Este 41 Norte 0 848.2 0 33
2019-05-27 12:00:00 13.9 27 Este 44 Norte 0 847.8 -0.4 39
2019-05-27 11:00:00 12.5 30 Este 42 Norte 0 847.8 -0.1 44
2019-05-27 10:00:00 10.9 23 Este 33 Norte 0 848.2 0.5 52
2019-05-27 09:00:00 9.9 19 Este 33 Norte 0 848.2 0.5 54
2019-05-27 08:00:00 8.6 22 Este 36 Norte 0 847.9 -0.2 58
2019-05-27 07:00:00 7.4 25 Este 33 Norte 0 847.7 -1 60
2019-05-27 06:00:00 8 24 Este 30 Norte 0 847.7 -1.6 53
2019-05-27 05:00:00 8.9 15 Este 19 Norte 0 848.1 -1.7 46
2019-05-27 04:00:00 9.8 12 Este 17 Norte 0 848.7 -1.3 44
2019-05-27 03:00:00 10 10 Este 17 Norte 0 849.3 -1 43
2019-05-27 02:00:00 9.9 12 Este 15 Norte 0 849.8 -0.6 44
2019-05-27 01:00:00 12.1 6 Este 16 Norte 0 850 0.1 33
2019-05-27 00:00:00 12.1 6 Este 16 Norte 0 850.3 0.2 36
2019-05-26 23:00:00 11 10 Este 26 Norte 0 850.4 0.4 40
2019-05-26 22:00:00 12.1 20 Este 34 Norte 0 849.9 -0.1 37
2019-05-26 21:00:00 14.4 21 Este 38 Norte 0 850.1 0.2 30
2019-05-26 20:00:00 15.6 20 Este 42 Norte 0 850 0.1 27
2019-05-26 19:00:00 17.5 19 Este 48 Norte 0 850 -0.7 25
2019-05-26 18:00:00 16.9 24 Este 49 Norte 0 849.9 -0.7 27
2019-05-26 17:00:00 16.7 29 Este 47 Norte 0 849.9 -0.7 30
2019-05-26 16:00:00 16.6 19 Este 36 Norte 0 850.7 0.1 30
2019-05-26 15:00:00 15.7 15 Este 44 Norte 0 850.6 0.2 32
2019-05-26 14:00:00 12.9 29 Este 55 Norte 0 850.6 0.6 33
2019-05-26 13:00:00 12.7 27 Este 49 Norte 0 850.6 0 34
2019-05-26 12:00:00 10 29 Este 44 Norte 0 850.4 0 42
2019-05-26 11:00:00 8.1 32 Este 47 Norte 0 850 -0.3 51
2019-05-26 10:00:00 6 23 Este 36 Norte 0 850.6 0.3 62
2019-05-26 09:00:00 3.5 23 Este 37 Norte 0 850.4 0.3 79
2019-05-26 08:00:00 2.3 26 Este 39 Norte 0 850.3 0.1 83
2019-05-26 07:00:00 2.3 24 Este 35 Norte 0 850.3 -0.3 82
2019-05-26 06:00:00 2.8 21 Este 33 Norte 0 850.1 -0.5 82
2019-05-26 05:00:00 2.7 18 Este 33 Norte 0 850.2 -0.6 80
2019-05-26 04:00:00 3.9 12 Este 40 Norte 0 850.6 -0.3 67
2019-05-26 03:00:00 6.2 22 Este 37 Norte 0 850.6 -0.7 42
2019-05-26 02:00:00 6.2 24 Este 45 Norte 0 850.8 -0.8 42
2019-05-26 01:00:00 7.6 28 Este 40 Norte 0 850.9 -0.2 37
2019-05-26 00:00:00 8.4 22 Este 36 Norte 0 851.3 0.6 34